Time;durP1;ratioP1;P1;durP2;ratioP2;P2;SDS_P1;SDS_P2;PMS_P1;PMS_P2;Temp;Humidity;BMP_temperature;BMP_pressure;BME280_temperature;BME280_humidity;BME280_pressure;Samples;Min_cycle;Max_cycle;Signal;HPM_P1;HPM_P2
2022/08/27 00:01:27;;;;;;;;;4.67;4.00;;;;;20.38;73.76;100280.03;5017381;28;45526;-67
2022/08/27 00:03:54;;;;;;;;;4.00;3.00;;;;;20.46;74.81;100300.25;5017704;28;45454;-67
2022/08/27 00:06:20;;;;;;;;;5.00;3.00;;;;;20.29;74.61;100282.81;5017681;28;45372;-66
2022/08/27 00:08:47;;;;;;;;;5.00;2.33;;;;;20.36;74.19;100295.09;5017270;28;45351;-68
2022/08/27 00:11:13;;;;;;;;;4.00;4.00;;;;;20.39;74.82;100309.19;5017302;28;45494;-67
2022/08/27 00:13:40;;;;;;;;;4.00;3.00;;;;;20.37;74.43;100303.03;5017757;28;45356;-66
2022/08/27 00:16:09;;;;;;;;;3.33;3.00;;;;;20.36;74.77;100300.41;5015840;28;45629;-67
2022/08/27 00:18:36;;;;;;;;;5.00;5.00;;;;;20.29;75.06;100291.63;5014580;28;45419;-67
2022/08/27 00:21:02;;;;;;;;;4.67;4.00;;;;;20.26;74.90;100291.69;5017347;28;45518;-66
2022/08/27 00:23:28;;;;;;;;;4.00;4.00;;;;;20.12;75.36;100275.09;5024532;28;45597;-66
2022/08/27 00:25:54;;;;;;;;;4.33;4.00;;;;;20.18;75.26;100277.66;5016922;28;45386;-67
2022/08/27 00:28:20;;;;;;;;;4.00;4.00;;;;;20.26;75.01;100281.94;5017059;28;45534;-66
2022/08/27 00:30:46;;;;;;;;;3.00;3.00;;;;;20.29;74.56;100283.69;5017131;28;45509;-67
2022/08/27 00:33:12;;;;;;;;;4.00;4.00;;;;;20.24;75.35;100286.41;5017124;28;45518;-67
2022/08/27 00:35:38;;;;;;;;;4.00;4.00;;;;;20.32;75.25;100283.66;5016951;28;45538;-68
2022/08/27 00:38:05;;;;;;;;;3.00;3.00;;;;;20.33;75.38;100289.81;5016876;28;45490;-67
2022/08/27 00:40:32;;;;;;;;;3.33;3.33;;;;;20.34;74.66;100284.50;5017104;28;45455;-68
2022/08/27 00:43:01;;;;;;;;;3.00;3.00;;;;;20.29;74.30;100261.59;5015773;28;45424;-67
2022/08/27 00:45:31;;;;;;;;;3.00;2.33;;;;;20.31;74.27;100259.78;5016588;28;45719;-67
2022/08/27 00:47:59;;;;;;;;;5.00;5.00;;;;;20.40;74.23;100273.78;5014083;28;45526;-67
2022/08/27 00:50:28;;;;;;;;;12.33;10.33;;;;;20.48;74.10;100278.13;5015749;28;45331;-70
2022/08/27 00:52:58;;;;;;;;;7.33;6.67;;;;;20.53;73.89;100276.25;5017302;28;45523;-68
2022/08/27 00:55:29;;;;;;;;;4.00;4.00;;;;;20.46;73.41;100260.44;5016844;28;45504;-67
2022/08/27 00:58:18;;;;;;;;;2.33;2.33;;;;;20.53;73.80;100265.66;5016850;28;45478;-69
2022/08/27 01:00:45;;;;;;;;;3.00;3.00;;;;;20.33;73.56;100236.75;5002857;28;45362;-67
2022/08/27 01:03:11;;;;;;;;;3.00;3.00;;;;;20.37;74.29;100247.34;5017022;28;45399;-67
2022/08/27 01:05:38;;;;;;;;;3.00;3.00;;;;;20.31;74.34;100236.78;5016449;28;45620;-67
2022/08/27 01:08:10;;;;;;;;;4.67;3.33;;;;;20.33;74.50;100232.31;5016603;28;45540;-67
2022/08/27 01:10:37;;;;;;;;;4.67;3.67;;;;;20.36;74.08;100234.09;5013825;28;45542;-66
2022/08/27 01:13:07;;;;;;;;;4.00;4.00;;;;;20.35;74.09;100237.63;5016000;28;45605;-67
2022/08/27 01:15:32;;;;;;;;;3.33;3.00;;;;;20.25;73.99;100213.00;5016171;28;46238;-67
2022/08/27 01:17:59;;;;;;;;;5.00;4.00;;;;;20.27;73.80;100212.09;5016355;28;45345;-67
2022/08/27 01:20:30;;;;;;;;;4.00;3.67;;;;;20.27;73.69;100205.91;5016922;28;45659;-67
2022/08/27 01:23:19;;;;;;;;;3.00;3.00;;;;;20.44;73.85;100229.53;5014289;28;45235;-67
2022/08/27 01:25:45;;;;;;;;;3.00;3.00;;;;;20.45;73.43;100226.84;4996606;28;45623;-68
2022/08/27 01:28:12;;;;;;;;;3.00;3.00;;;;;20.45;73.41;100220.66;4997166;28;45362;-68
2022/08/27 01:30:39;;;;;;;;;3.00;3.00;;;;;20.39;73.02;100210.13;4997491;28;45552;-67
2022/08/27 01:33:16;;;;;;;;;3.67;3.33;;;;;20.44;73.16;100210.97;4997399;28;45411;-67
2022/08/27 01:35:44;;;;;;;;;3.00;3.00;;;;;20.38;73.35;100197.78;4997211;28;45483;-69
2022/08/27 01:38:11;;;;;;;;;4.33;3.33;;;;;20.23;73.56;100185.63;4997040;28;45480;-68
2022/08/27 01:40:37;;;;;;;;;4.33;3.00;;;;;20.21;73.63;100198.94;4996826;28;45459;-68
2022/08/27 01:43:03;;;;;;;;;4.67;3.00;;;;;20.16;74.48;100207.84;4997423;28;45305;-67
2022/08/27 01:45:33;;;;;;;;;3.00;3.00;;;;;20.06;74.89;100202.69;4997044;28;46460;-68
2022/08/27 01:48:00;;;;;;;;;4.00;4.00;;;;;19.94;74.80;100191.38;5012245;28;45588;-67
2022/08/27 01:50:31;;;;;;;;;3.67;3.67;;;;;19.99;74.04;100197.47;4997414;28;45339;-70
2022/08/27 01:53:01;;;;;;;;;3.00;3.00;;;;;20.09;74.33;100201.75;4997645;28;45502;-67
2022/08/27 01:55:26;;;;;;;;;4.00;4.00;;;;;20.09;74.33;100195.56;4997189;28;46646;-67
2022/08/27 01:57:53;;;;;;;;;3.00;3.00;;;;;20.16;74.00;100198.13;4996832;28;45478;-67
2022/08/27 02:00:24;;;;;;;;;3.67;3.00;;;;;20.17;73.69;100188.38;4996773;28;45475;-69
2022/08/27 02:02:50;;;;;;;;;3.67;3.00;;;;;19.71;73.82;100098.91;4997002;28;45395;-67
2022/08/27 02:05:16;;;;;;;;;3.67;3.00;;;;;20.23;73.96;100180.31;4996557;28;46122;-68
2022/08/27 02:07:42;;;;;;;;;3.00;3.00;;;;;19.66;73.95;100089.25;5011919;28;45507;-69
2022/08/27 02:10:12;;;;;;;;;4.00;2.00;;;;;20.20;73.74;100181.25;4996537;28;45470;-69
2022/08/27 02:12:38;;;;;;;;;3.00;2.00;;;;;20.17;74.00;100178.63;4997017;28;46041;-69
2022/08/27 02:15:05;;;;;;;;;3.00;2.67;;;;;20.19;73.55;100179.53;4996698;28;45217;-67
2022/08/27 02:17:31;;;;;;;;;3.00;2.67;;;;;20.14;73.88;100169.88;4996767;28;45288;-67
2022/08/27 02:19:57;;;;;;;;;3.33;3.33;;;;;20.09;74.06;100158.44;4996991;28;45303;-67
2022/08/27 02:22:23;;;;;;;;;3.00;2.33;;;;;20.13;73.69;100165.47;4997314;28;45318;-67
2022/08/27 02:24:49;;;;;;;;;3.33;3.00;;;;;19.96;74.00;100147.16;4999889;28;45505;-67
2022/08/27 02:27:14;;;;;;;;;3.00;2.00;;;;;20.17;73.58;100169.81;5000015;28;45825;-68
2022/08/27 02:29:40;;;;;;;;;2.00;2.00;;;;;20.20;72.76;100164.47;5000255;28;45407;-69
2022/08/27 02:32:06;;;;;;;;;2.00;2.00;;;;;20.27;72.99;100168.75;5000550;28;45446;-68
2022/08/27 02:34:32;;;;;;;;;4.00;4.00;;;;;20.16;72.86;100146.88;4999993;28;45510;-67
2022/08/27 02:36:58;;;;;;;;;3.00;3.00;;;;;20.29;72.73;100161.66;5000282;28;45336;-69
2022/08/27 02:39:24;;;;;;;;;3.00;3.00;;;;;20.34;72.33;100170.44;5000063;28;45388;-67
2022/08/27 02:41:49;;;;;;;;;3.00;3.00;;;;;20.32;72.51;100164.28;5000102;28;45152;-67
2022/08/27 02:44:15;;;;;;;;;4.00;3.00;;;;;20.29;72.52;100158.13;4999735;28;45660;-69
2022/08/27 02:46:41;;;;;;;;;3.00;2.00;;;;;20.35;72.43;100164.25;4999822;28;45233;-67
2022/08/27 02:49:08;;;;;;;;;4.00;3.00;;;;;20.38;72.21;100168.59;5015136;28;45502;-68
2022/08/27 02:51:34;;;;;;;;;3.33;3.33;;;;;20.37;72.58;100167.75;5000024;28;45337;-67
2022/08/27 02:54:01;;;;;;;;;4.00;4.00;;;;;20.30;73.33;100151.94;4999808;28;46410;-67
2022/08/27 02:56:27;;;;;;;;;4.00;3.00;;;;;20.22;73.70;100162.69;4999418;28;45486;-70
2022/08/27 02:58:53;;;;;;;;;3.00;3.00;;;;;19.98;73.96;100130.34;4999787;28;45547;-70
2022/08/27 03:01:18;;;;;;;;;2.67;2.67;;;;;20.13;74.48;100163.69;4999810;28;45459;-68
2022/08/27 03:03:44;;;;;;;;;2.33;2.00;;;;;20.13;74.03;100155.72;4999417;28;45478;-70
2022/08/27 03:06:10;;;;;;;;;5.00;4.00;;;;;20.12;74.02;100161.06;4999525;28;45260;-68
2022/08/27 03:08:36;;;;;;;;;3.00;2.67;;;;;20.06;74.11;100149.66;4999642;28;45516;-68
2022/08/27 03:11:02;;;;;;;;;4.00;3.67;;;;;20.06;74.10;100144.34;5000008;28;45421;-70
2022/08/27 03:13:27;;;;;;;;;3.00;3.00;;;;;20.15;74.19;100151.25;4999172;28;46101;-69
2022/08/27 03:15:53;;;;;;;;;3.00;3.00;;;;;19.99;74.44;100132.06;5014510;28;45447;-69
2022/08/27 03:18:20;;;;;;;;;4.67;4.00;;;;;19.98;74.45;100130.34;4999802;28;45248;-68
2022/08/27 03:20:54;;;;;;;;;3.67;3.67;;;;;20.12;74.40;100146.03;4999606;28;45348;-70
2022/08/27 03:23:23;;;;;;;;;5.00;5.00;;;;;20.17;73.76;100153.91;5014197;28;45620;-68
2022/08/27 03:25:55;;;;;;;;;3.67;3.33;;;;;20.09;74.33;100132.81;4999016;28;45457;-70
2022/08/27 03:28:27;;;;;;;;;4.00;3.67;;;;;20.10;73.75;100133.72;5014244;28;45383;-68
2022/08/27 03:31:00;;;;;;;;;3.00;3.00;;;;;20.18;73.58;100142.41;4999376;28;45344;-69
2022/08/27 03:33:35;;;;;;;;;4.00;4.00;;;;;20.10;73.58;100121.31;4999074;28;46300;-70
2022/08/27 03:36:01;;;;;;;;;4.00;4.00;;;;;20.05;73.70;100112.53;5013709;28;45617;-70
2022/08/27 03:38:26;;;;;;;;;4.33;4.33;;;;;20.24;74.20;100142.31;4999108;28;45400;-69
2022/08/27 03:40:52;;;;;;;;;7.33;7.00;;;;;20.12;74.69;100129.25;4999300;28;45495;-70
2022/08/27 03:43:19;;;;;;;;;9.00;7.00;;;;;20.20;74.42;100140.59;4998898;28;45560;-68
2022/08/27 03:45:46;;;;;;;;;3.67;3.67;;;;;20.21;74.64;100137.03;4999156;28;45537;-67
2022/08/27 03:48:14;;;;;;;;;3.67;3.67;;;;;20.24;73.77;100137.00;4998899;28;45525;-69
2022/08/27 03:50:42;;;;;;;;;3.33;3.00;;;;;20.27;73.50;100135.19;4998986;28;45261;-67
2022/08/27 03:53:09;;;;;;;;;3.00;2.00;;;;;20.21;73.51;100126.44;5013863;28;45839;-68
2022/08/27 03:55:35;;;;;;;;;2.00;2.00;;;;;20.24;73.81;100129.91;4999111;28;45596;-67
2022/08/27 03:58:01;;;;;;;;;5.00;3.67;;;;;20.32;73.20;100136.88;4999312;28;45954;-67
2022/08/27 04:00:27;;;;;;;;;2.33;2.33;;;;;20.32;73.23;100134.22;4998863;28;45300;-70
2022/08/27 04:02:53;;;;;;;;;2.00;2.00;;;;;20.33;73.34;100123.56;4998573;28;45605;-67
2022/08/27 04:05:21;;;;;;;;;3.67;3.00;;;;;20.38;72.95;100139.44;4998485;28;45439;-69
2022/08/27 04:07:47;;;;;;;;;3.67;3.00;;;;;20.25;72.98;100118.41;4998656;28;45362;-67
2022/08/27 04:10:14;;;;;;;;;2.00;2.00;;;;;20.24;73.28;100115.78;4998768;28;46234;-67
2022/08/27 04:12:40;;;;;;;;;3.00;2.67;;;;;20.36;73.63;100130.63;4998241;28;45503;-69
2022/08/27 04:15:07;;;;;;;;;4.00;4.00;;;;;20.22;73.35;100121.09;4998464;28;45294;-67
2022/08/27 04:17:33;;;;;;;;;5.00;4.33;;;;;20.11;74.24;100106.28;5013912;28;45294;-70
2022/08/27 04:19:58;;;;;;;;;4.00;3.00;;;;;20.10;74.00;100112.50;5013830;28;45639;-69
2022/08/27 04:22:25;;;;;;;;;4.00;3.67;;;;;20.09;74.39;100122.19;4998242;28;45329;-67
2022/08/27 04:24:51;;;;;;;;;3.00;3.00;;;;;19.97;74.37;100106.50;4998414;28;45258;-69
2022/08/27 04:27:17;;;;;;;;;4.00;4.00;;;;;19.95;74.70;100100.34;5013320;28;45501;-69
2022/08/27 04:29:43;;;;;;;;;3.00;3.00;;;;;19.84;75.33;100084.59;4998559;28;45400;-67
2022/08/27 04:32:09;;;;;;;;;4.00;3.00;;;;;20.04;74.96;100110.81;4998074;28;45439;-67
2022/08/27 04:34:35;;;;;;;;;3.00;3.00;;;;;20.01;74.86;100100.22;4998527;28;45457;-69
2022/08/27 04:37:02;;;;;;;;;3.00;3.00;;;;;20.15;74.06;100121.22;4998186;28;45390;-67
2022/08/27 04:39:29;;;;;;;;;3.00;3.00;;;;;20.18;74.22;100122.06;4998353;28;45388;-67
2022/08/27 04:41:58;;;;;;;;;3.00;3.00;;;;;20.13;74.72;100099.16;4997837;28;46275;-67
2022/08/27 04:44:26;;;;;;;;;4.00;3.00;;;;;20.24;74.17;100110.47;4998127;28;45320;-67
2022/08/27 04:46:56;;;;;;;;;5.00;3.33;;;;;20.28;74.03;100106.88;5011919;28;45290;-67
2022/08/27 04:49:22;;;;;;;;;3.67;3.00;;;;;20.29;73.94;100103.31;4996942;28;45605;-67
2022/08/27 04:51:47;;;;;;;;;2.00;2.00;;;;;20.24;73.96;100081.31;4997810;28;45296;-67
2022/08/27 04:54:13;;;;;;;;;3.67;3.00;;;;;20.26;74.01;100092.75;4997715;28;45415;-67
2022/08/27 04:56:39;;;;;;;;;2.67;2.67;;;;;20.31;73.89;100104.16;4998212;28;45379;-69
2022/08/27 04:59:07;;;;;;;;;1.00;1.00;;;;;20.34;73.74;100119.16;4998741;28;45610;-68
2022/08/27 05:01:33;;;;;;;;;3.33;2.00;;;;;20.33;74.04;100109.44;4997627;28;46527;-69
2022/08/27 05:03:59;;;;;;;;;5.33;3.33;;;;;20.31;74.67;100111.25;4997625;28;45491;-70
2022/08/27 05:06:25;;;;;;;;;4.00;4.00;;;;;20.31;74.25;100114.75;4997789;28;45224;-67
2022/08/27 05:08:53;;;;;;;;;3.67;3.00;;;;;20.25;74.63;100109.56;4997817;28;45290;-67
2022/08/27 05:11:20;;;;;;;;;3.67;3.67;;;;;20.22;74.76;100096.38;4997514;28;45428;-70
2022/08/27 05:13:47;;;;;;;;;2.33;2.00;;;;;20.33;74.68;100115.59;4997539;28;45427;-70
2022/08/27 05:16:17;;;;;;;;;3.00;3.00;;;;;20.35;73.99;100112.94;5012783;28;45436;-67
2022/08/27 05:18:43;;;;;;;;;5.00;5.00;;;;;20.21;74.23;100086.66;4997766;28;45444;-69
2022/08/27 05:21:14;;;;;;;;;3.00;3.00;;;;;20.32;74.13;100095.31;4997692;28;45423;-69
2022/08/27 05:23:40;;;;;;;;;2.00;2.00;;;;;20.44;73.36;100118.09;5012780;28;45270;-70
2022/08/27 05:26:07;;;;;;;;;3.00;3.00;;;;;20.31;74.15;100111.25;4997465;28;45285;-69
2022/08/27 05:28:33;;;;;;;;;4.00;4.00;;;;;20.32;74.74;100099.75;4997344;28;45272;-70
2022/08/27 05:31:10;;;;;;;;;4.33;4.00;;;;;20.29;75.11;100113.03;4997047;28;46303;-69
2022/08/27 05:33:37;;;;;;;;;4.00;4.00;;;;;20.19;75.33;100093.75;4997452;28;45367;-67
2022/08/27 05:36:04;;;;;;;;;4.00;3.67;;;;;20.27;75.23;100107.75;5012665;28;45639;-67
2022/08/27 05:38:31;;;;;;;;;4.00;3.33;;;;;20.33;74.94;100093.53;4997503;28;45492;-70
2022/08/27 05:41:05;;;;;;;;;4.33;4.00;;;;;20.36;74.58;100099.66;5012197;28;46900;-67
2022/08/27 05:43:31;;;;;;;;;1.00;1.00;;;;;20.40;74.12;100100.47;4997214;28;45427;-67
2022/08/27 05:45:56;;;;;;;;;3.00;3.00;;;;;20.34;75.23;100097.94;4997341;28;45444;-67
2022/08/27 05:48:22;;;;;;;;;3.00;3.00;;;;;20.29;74.72;100074.13;4997429;28;45497;-69
2022/08/27 05:50:47;;;;;;;;;4.00;4.00;;;;;20.45;74.58;100088.91;4996444;28;45825;-67
2022/08/27 05:53:13;;;;;;;;;3.00;3.00;;;;;20.52;74.33;100096.75;5011150;28;45535;-67
2022/08/27 05:55:42;;;;;;;;;3.00;3.00;;;;;20.60;73.96;100102.81;4996697;28;45412;-67
2022/08/27 06:01:03;;;;;;;;;3.00;2.00;;;;;20.64;73.60;100102.72;4997297;28;45586;-69
2022/08/27 06:01:03;;;;;;;;;4.00;3.00;;;;;20.68;73.07;100105.34;5000021;28;45939;-69
2022/08/27 06:03:32;;;;;;;;;2.00;2.00;;;;;20.59;73.54;100095.75;4999854;28;45539;-69
2022/08/27 06:06:16;;;;;;;;;3.67;3.67;;;;;20.71;73.05;100116.78;5015243;28;45522;-67
2022/08/27 06:08:41;;;;;;;;;3.33;3.00;;;;;20.58;73.35;100100.16;5000509;28;45380;-67
2022/08/27 06:11:07;;;;;;;;;3.67;3.00;;;;;20.73;73.22;100117.63;4999829;28;46225;-66
2022/08/27 06:13:34;;;;;;;;;4.00;3.00;;;;;20.85;72.95;100121.81;5000113;28;45394;-68
2022/08/27 06:16:02;;;;;;;;;3.00;3.00;;;;;20.88;73.15;100113.78;5000259;28;45417;-69
2022/08/27 06:18:28;;;;;;;;;3.33;3.33;;;;;20.77;73.64;100114.00;5000228;28;45560;-68
2022/08/27 06:20:53;;;;;;;;;3.67;3.67;;;;;20.77;73.41;100102.47;5015307;28;47116;-67
2022/08/27 06:23:19;;;;;;;;;5.00;5.00;;;;;20.78;74.27;100091.84;4999858;28;45494;-68
2022/08/27 06:25:45;;;;;;;;;4.00;4.00;;;;;20.97;72.99;100092.38;5000139;28;45601;-67
2022/08/27 06:28:12;;;;;;;;;4.33;3.33;;;;;21.25;72.18;100107.75;5000525;28;45423;-68
2022/08/27 06:30:38;;;;;;;;;4.00;4.00;;;;;21.34;71.28;100104.88;5000078;28;46506;-68
2022/08/27 06:33:03;;;;;;;;;3.33;3.00;;;;;21.42;71.24;100094.94;5002075;28;45380;-66
2022/08/27 06:35:29;;;;;;;;;4.00;3.33;;;;;21.70;70.09;100082.88;5019064;28;45552;-67
2022/08/27 06:37:54;;;;;;;;;2.67;2.67;;;;;22.47;68.94;100078.34;5019272;28;45601;-66
2022/08/27 06:40:21;;;;;;;;;2.00;2.00;;;;;23.96;64.09;100098.00;5019056;28;46140;-70
2022/08/27 06:42:47;;;;;;;;;3.00;3.00;;;;;23.93;62.74;100069.63;5018988;28;45317;-70
2022/08/27 06:45:13;;;;;;;;;2.33;2.33;;;;;23.93;63.25;100095.44;5034739;28;45505;-71
2022/08/27 06:47:39;;;;;;;;;3.33;3.00;;;;;23.98;63.30;100104.16;5019771;28;45264;-69
2022/08/27 06:50:05;;;;;;;;;2.67;2.00;;;;;23.86;62.67;100083.22;5019433;28;45370;-69
2022/08/27 06:52:30;;;;;;;;;2.67;2.00;;;;;24.24;62.21;100105.97;5016154;28;45668;-67
2022/08/27 06:54:56;;;;;;;;;3.00;3.00;;;;;23.73;61.46;100018.69;5016629;28;45345;-68
2022/08/27 06:57:23;;;;;;;;;2.00;1.33;;;;;24.14;61.85;100107.22;5018069;28;45525;-67
2022/08/27 06:59:48;;;;;;;;;3.00;3.00;;;;;24.39;61.29;100104.56;5016818;28;45565;-67
2022/08/27 07:02:14;;;;;;;;;2.67;2.00;;;;;25.62;59.41;100096.59;5018524;28;45336;-66
2022/08/27 07:04:40;;;;;;;;;2.33;2.00;;;;;29.44;51.07;100104.59;5018570;28;45383;-67
2022/08/27 07:07:06;;;;;;;;;1.00;1.00;;;;;29.81;47.31;100089.13;5019026;28;45364;-68
2022/08/27 07:09:33;;;;;;;;;3.33;3.00;;;;;30.21;45.54;100083.25;5017521;28;46212;-68
2022/08/27 07:12:00;;;;;;;;;2.00;2.00;;;;;29.22;46.21;100094.16;5018339;28;45570;-68
2022/08/27 07:14:26;;;;;;;;;2.00;2.00;;;;;28.41;48.62;100090.34;5033703;28;45344;-68
2022/08/27 07:16:51;;;;;;;;;1.00;1.00;;;;;27.60;49.44;100055.84;5018054;28;45603;-68
2022/08/27 07:19:17;;;;;;;;;2.00;1.67;;;;;27.23;51.12;100095.09;5019075;28;46358;-68
2022/08/27 07:21:43;;;;;;;;;1.00;1.00;;;;;26.87;51.55;100082.44;5019088;28;45853;-68
2022/08/27 07:24:09;;;;;;;;;1.00;1.00;;;;;26.75;51.69;100089.22;5034179;28;45332;-68
2022/08/27 07:26:38;;;;;;;;;4.00;2.00;;;;;26.58;51.77;100075.69;5018737;28;45404;-66
2022/08/27 07:29:07;;;;;;;;;2.67;2.67;;;;;26.69;52.07;100094.84;5019133;28;47164;-66
2022/08/27 07:31:34;;;;;;;;;5.33;1.33;;;;;26.61;52.15;100094.31;5048663;28;45465;-69
2022/08/27 07:34:00;;;;;;;;;3.00;2.00;;;;;26.58;52.55;100097.13;5016453;28;45720;-66
2022/08/27 07:36:27;;;;;;;;;3.00;3.00;;;;;26.43;52.64;100076.34;5017297;28;45330;-66
2022/08/27 07:38:52;;;;;;;;;1.00;1.00;;;;;26.48;52.79;100093.06;5015625;28;45506;-68
2022/08/27 07:41:18;;;;;;;;;2.00;2.00;;;;;25.96;52.74;100030.13;5014218;28;45751;-66
2022/08/27 07:46:28;;;;;;;;;1.33;1.33;;;;;26.03;52.50;100083.38;5016170;28;45395;-69
2022/08/27 07:48:56;;;;;;;;;1.00;1.00;;;;;25.87;53.68;100088.47;5017314;28;45955;-67
2022/08/27 07:51:23;;;;;;;;;1.00;1.00;;;;;25.89;53.29;100095.50;5017477;28;45356;-70
2022/08/27 07:53:51;;;;;;;;;1.00;1.00;;;;;25.82;53.15;100085.09;5017918;28;45396;-67
2022/08/27 07:56:17;;;;;;;;;2.00;2.00;;;;;25.84;53.63;100080.56;5018775;28;45502;-68
2022/08/27 07:58:43;;;;;;;;;5.00;5.00;;;;;25.94;53.31;100089.97;5018110;28;45557;-67
2022/08/27 08:01:10;;;;;;;;;2.00;1.00;;;;;25.85;53.50;100096.56;5018420;28;45589;-67
2022/08/27 08:03:35;;;;;;;;;3.00;2.33;;;;;25.71;53.72;100083.72;5018141;28;45233;-67
2022/08/27 08:06:04;;;;;;;;;2.00;2.00;;;;;25.89;53.60;100092.81;5018254;28;45389;-67
2022/08/27 08:08:32;;;;;;;;;2.00;1.00;;;;;25.89;53.94;100094.63;5017762;28;46069;-67
2022/08/27 08:10:57;;;;;;;;;3.33;2.67;;;;;25.97;53.96;100104.09;5033119;28;45456;-67
2022/08/27 08:13:23;;;;;;;;;3.00;2.00;;;;;25.87;53.96;100093.81;5016734;28;45550;-67
2022/08/27 08:15:49;;;;;;;;;2.00;1.67;;;;;26.03;53.96;100108.34;5018756;28;45343;-68
2022/08/27 08:18:15;;;;;;;;;2.00;2.00;;;;;26.07;53.83;100106.41;5033309;28;46704;-67
2022/08/27 08:20:40;;;;;;;;;1.67;1.00;;;;;26.05;53.49;100101.13;5017733;28;45253;-67
2022/08/27 08:23:06;;;;;;;;;5.00;5.00;;;;;26.10;53.47;100098.25;5018228;28;45368;-67
2022/08/27 08:25:32;;;;;;;;;5.00;5.00;;;;;26.14;53.40;100110.56;5017698;28;45487;-68
2022/08/27 08:27:59;;;;;;;;;2.00;2.00;;;;;25.72;53.14;100049.81;5017351;28;46627;-67
2022/08/27 08:30:25;;;;;;;;;3.00;3.00;;;;;25.86;53.30;100095.59;5017534;28;45436;-67
2022/08/27 08:32:50;;;;;;;;;2.00;2.00;;;;;25.80;53.78;100111.91;5017913;28;45347;-67
2022/08/27 08:35:16;;;;;;;;;1.00;1.00;;;;;25.58;53.54;100112.75;5018313;28;45312;-67
2022/08/27 08:37:43;;;;;;;;;2.00;2.00;;;;;25.52;53.82;100114.81;5016087;28;45861;-67
2022/08/27 08:40:27;;;;;;;;;2.67;2.00;;;;;25.46;54.24;100105.22;5017502;28;46034;-66
2022/08/27 08:42:55;;;;;;;;;4.00;2.33;;;;;25.52;54.27;100117.47;5017532;28;45245;-67
2022/08/27 08:45:30;;;;;;;;;2.00;1.00;;;;;25.59;54.19;100114.50;5032488;28;45587;-67
2022/08/27 08:48:03;;;;;;;;;2.00;2.00;;;;;25.75;53.75;100101.41;5017280;28;46533;-67
2022/08/27 08:51:00;;;;;;;;;3.33;3.33;;;;;25.79;53.63;100102.16;5032500;28;45341;-67
2022/08/27 08:53:50;;;;;;;;;2.00;1.00;;;;;25.55;54.51;100106.66;5017244;28;45462;-67
2022/08/27 08:56:37;;;;;;;;;2.67;2.67;;;;;25.56;54.63;100111.94;5031876;28;45319;-67
2022/08/27 08:59:21;;;;;;;;;2.00;2.00;;;;;25.62;54.75;100107.28;5016468;28;45506;-68
2022/08/27 09:01:49;;;;;;;;;3.00;3.00;;;;;25.72;54.17;100089.94;5016909;28;45280;-67
2022/08/27 09:04:14;;;;;;;;;3.00;2.00;;;;;26.01;54.06;100106.69;5015965;28;45501;-67
2022/08/27 09:06:57;;;;;;;;;1.00;1.00;;;;;26.13;53.71;100103.47;5016082;28;45438;-68
2022/08/27 09:09:37;;;;;;;;;2.00;2.00;;;;;26.10;53.84;100114.31;5030619;28;46782;-68
2022/08/27 09:12:13;;;;;;;;;2.00;2.00;;;;;25.95;53.88;100081.03;5015558;28;45753;-67
2022/08/27 09:15:02;;;;;;;;;3.00;3.00;;;;;26.07;53.92;100103.75;5016347;28;45468;-67
2022/08/27 09:17:28;;;;;;;;;4.33;4.00;;;;;26.07;53.38;100109.09;5015762;28;45402;-66
2022/08/27 09:19:54;;;;;;;;;5.00;3.00;;;;;26.13;53.44;100108.84;5030149;28;47078;-69
2022/08/27 09:22:50;;;;;;;;;9.33;8.67;;;;;26.32;53.15;100112.50;5013700;28;45490;-70
2022/08/27 09:25:31;;;;;;;;;3.33;3.33;;;;;26.32;52.84;100100.88;5013036;28;45312;-70
2022/08/27 09:28:03;;;;;;;;;3.67;3.33;;;;;26.57;52.67;100114.13;5014469;28;45434;-68
2022/08/27 09:30:31;;;;;;;;;4.00;2.00;;;;;26.78;52.46;100107.00;5014547;28;45318;-70
2022/08/27 09:33:03;;;;;;;;;2.00;2.00;;;;;26.90;51.94;100103.75;5013903;28;45442;-69
2022/08/27 09:35:39;;;;;;;;;4.00;2.00;;;;;27.42;50.61;100110.41;5014092;28;45461;-68
2022/08/27 09:38:05;;;;;;;;;2.00;2.00;;;;;28.00;50.18;100102.25;5028927;28;45538;-69
2022/08/27 09:40:47;;;;;;;;;3.00;3.00;;;;;28.61;48.21;100097.41;5013964;28;46279;-69
2022/08/27 09:43:15;;;;;;;;;3.00;3.00;;;;;28.85;48.33;100116.75;5029216;28;45281;-70
2022/08/27 09:45:50;;;;;;;;;4.00;4.00;;;;;29.21;47.35;100113.97;5014073;28;45437;-70
2022/08/27 09:48:23;;;;;;;;;2.00;2.00;;;;;29.43;47.28;100107.41;5014116;28;45398;-70
2022/08/27 09:51:15;;;;;;;;;5.00;5.00;;;;;29.47;46.80;100099.06;5013584;28;45427;-70
2022/08/27 09:53:53;;;;;;;;;1.00;1.00;;;;;29.42;44.94;100105.66;5029042;28;45346;-70
2022/08/27 09:56:38;;;;;;;;;3.67;3.00;;;;;29.38;45.98;100113.03;5014009;28;45203;-69
2022/08/27 09:59:19;;;;;;;;;4.00;3.00;;;;;29.41;45.85;100104.81;5014201;28;46058;-69
2022/08/27 10:02:02;;;;;;;;;4.00;3.67;;;;;29.64;45.37;100116.94;5027889;28;45583;-68
2022/08/27 10:04:37;;;;;;;;;2.67;2.67;;;;;29.65;45.56;100094.47;5013218;28;45413;-68
2022/08/27 10:07:21;;;;;;;;;2.33;2.33;;;;;29.71;44.82;100106.72;5013346;28;45410;-69
2022/08/27 10:10:06;;;;;;;;;3.00;3.00;;;;;29.96;44.14;100095.44;5014681;28;45572;-71
2022/08/27 10:12:43;;;;;;;;;2.00;2.00;;;;;30.16;44.40;100102.34;5015431;28;46637;-66
2022/08/27 10:15:10;;;;;;;;;2.00;2.00;;;;;30.42;44.71;100064.94;5031101;28;45464;-68
2022/08/27 10:17:45;;;;;;;;;3.00;3.00;;;;;30.70;43.73;100081.19;5027147;28;45596;-69
2022/08/27 10:20:31;;;;;;;;;2.00;2.00;;;;;30.89;43.76;100083.63;5013070;28;45369;-69
2022/08/27 10:23:15;;;;;;;;;9.00;8.00;;;;;30.77;43.94;100067.31;5014051;28;45813;-70
2022/08/27 10:26:06;;;;;;;;;4.00;4.00;;;;;30.85;43.14;100083.88;5015670;28;45457;-69
2022/08/27 10:29:00;;;;;;;;;2.67;2.67;;;;;30.75;42.08;100072.81;5029580;28;45398;-69
2022/08/27 10:31:35;;;;;;;;;3.00;3.00;;;;;31.26;41.63;100075.06;5014341;28;45471;-67
2022/08/27 10:34:26;;;;;;;;;3.00;3.00;;;;;31.64;41.80;100078.00;5013392;28;45406;-70
2022/08/27 10:37:29;;;;;;;;;3.00;3.00;;;;;32.40;41.08;100078.41;5010134;28;45414;-67
2022/08/27 10:40:00;;;;;;;;;2.67;2.67;;;;;33.39;37.32;100075.09;5015638;28;45493;-68
2022/08/27 10:42:41;;;;;;;;;4.67;4.67;;;;;33.46;38.79;100073.66;5016072;28;45334;-70
2022/08/27 10:45:46;;;;;;;;;1.67;1.67;;;;;34.09;38.07;100066.28;5024721;28;45558;-69
2022/08/27 10:48:37;;;;;;;;;2.33;2.33;;;;;34.79;36.29;100064.56;5015652;28;45780;-69
2022/08/27 10:51:25;;;;;;;;;3.00;2.00;;;;;34.61;35.27;100056.84;5040937;28;45529;-68
2022/08/27 10:54:14;;;;;;;;;2.67;2.67;;;;;34.64;35.56;100036.78;5015120;28;45629;-69
2022/08/27 10:57:07;;;;;;;;;4.00;2.67;;;;;34.73;34.80;100059.63;5016237;28;46211;-69
2022/08/27 10:59:55;;;;;;;;;3.00;2.00;;;;;34.19;35.31;100045.66;5018507;28;45250;-69
2022/08/27 11:02:34;;;;;;;;;3.33;3.33;;;;;33.77;36.88;100060.59;5018235;28;45426;-69
2022/08/27 11:05:08;;;;;;;;;3.33;3.33;;;;;33.44;36.67;100048.53;5018668;28;45439;-66
2022/08/27 11:07:40;;;;;;;;;2.33;2.33;;;;;33.26;37.91;100050.75;5017941;28;45379;-68
2022/08/27 11:10:24;;;;;;;;;3.33;3.33;;;;;33.17;38.48;100018.97;5017397;28;45337;-68
2022/08/27 11:12:53;;;;;;;;;3.33;2.67;;;;;33.07;38.11;100046.66;5018454;28;45446;-70
2022/08/27 11:15:25;;;;;;;;;3.00;3.00;;;;;33.14;38.48;100044.38;5018812;28;45454;-69
2022/08/27 11:18:18;;;;;;;;;2.33;2.33;;;;;33.32;38.87;100034.06;5016871;28;46401;-69
2022/08/27 11:20:58;;;;;;;;;4.00;3.67;;;;;33.44;39.02;100037.72;5018085;28;45464;-71
2022/08/27 11:23:32;;;;;;;;;4.00;3.00;;;;;33.64;37.82;100034.41;5018120;28;45454;-71
2022/08/27 11:26:03;;;;;;;;;2.67;2.67;;;;;33.95;37.79;100031.25;5017224;28;45305;-71
2022/08/27 11:28:40;;;;;;;;;3.00;3.00;;;;;33.75;37.86;100024.63;5017693;28;45601;-69
2022/08/27 11:31:33;;;;;;;;;2.00;2.00;;;;;33.77;38.25;100028.94;5017825;28;45500;-70
2022/08/27 11:34:38;;;;;;;;;6.33;5.67;;;;;33.59;37.85;100023.03;5018537;28;45216;-68
2022/08/27 11:37:24;;;;;;;;;3.00;2.67;;;;;32.86;38.09;100000.34;5018315;28;45594;-68
2022/08/27 11:40:17;;;;;;;;;3.00;3.00;;;;;32.51;40.16;100029.88;5017964;28;46165;-70
2022/08/27 11:42:47;;;;;;;;;4.33;3.33;;;;;32.35;40.23;100029.19;5016147;28;45348;-69